createdAt,value
2023-01-15T00:00:03.916Z,992.98
2023-01-15T00:01:03.955Z,993.04
2023-01-15T00:02:03.879Z,992.97
2023-01-15T00:03:03.871Z,992.99
2023-01-15T00:04:03.854Z,993.00
2023-01-15T00:05:03.862Z,992.91
2023-01-15T00:06:03.845Z,992.93
2023-01-15T00:07:03.856Z,992.89
2023-01-15T00:08:03.822Z,992.98
2023-01-15T00:09:03.812Z,992.91
2023-01-15T00:10:03.803Z,992.93
2023-01-15T00:11:03.792Z,992.94
2023-01-15T00:12:03.781Z,992.87
2023-01-15T00:13:03.775Z,992.94
2023-01-15T00:14:03.777Z,992.95
2023-01-15T00:15:03.751Z,992.86
2023-01-15T00:16:03.798Z,993.02
2023-01-15T00:17:03.739Z,993.01
2023-01-15T00:18:03.726Z,993.04
2023-01-15T00:19:03.717Z,993.03
2023-01-15T00:20:03.703Z,993.09
2023-01-15T00:21:03.697Z,992.99
2023-01-15T00:22:03.703Z,993.01
2023-01-15T00:23:03.677Z,993.05
2023-01-15T00:24:03.676Z,992.99
2023-01-15T00:25:03.664Z,992.98
2023-01-15T00:26:03.658Z,992.95
2023-01-15T00:27:03.652Z,992.92
2023-01-15T00:28:03.648Z,992.86
2023-01-15T00:29:03.624Z,992.86
2023-01-15T00:30:03.613Z,992.84
2023-01-15T00:31:03.630Z,992.86
2023-01-15T00:32:03.602Z,992.93
2023-01-15T00:33:03.583Z,992.90
2023-01-15T00:34:03.591Z,992.77
2023-01-15T00:35:03.588Z,992.67
2023-01-15T00:36:03.560Z,992.72
2023-01-15T00:37:03.556Z,992.73
2023-01-15T00:38:03.536Z,992.63
2023-01-15T00:39:03.529Z,992.61
2023-01-15T00:40:03.526Z,992.58
2023-01-15T00:41:03.511Z,992.57
2023-01-15T00:42:03.500Z,992.51
2023-01-15T00:43:03.498Z,992.51
2023-01-15T00:44:03.481Z,992.47
2023-01-15T00:45:03.465Z,992.42
2023-01-15T00:46:03.461Z,992.45
2023-01-15T00:47:03.451Z,992.46
2023-01-15T00:48:03.451Z,992.47
2023-01-15T00:49:03.442Z,992.50
2023-01-15T00:50:03.423Z,992.46
2023-01-15T00:51:03.418Z,992.54
2023-01-15T00:52:03.453Z,992.53
2023-01-15T00:53:03.412Z,992.52
2023-01-15T00:54:03.386Z,992.59
2023-01-15T00:55:03.388Z,992.50
2023-01-15T00:56:03.366Z,992.60
2023-01-15T00:57:03.361Z,992.56
2023-01-15T00:58:03.348Z,992.58
2023-01-15T00:59:03.343Z,992.48
2023-01-15T01:00:03.344Z,992.52
2023-01-15T01:01:03.434Z,992.55
2023-01-15T01:02:03.455Z,992.51
2023-01-15T01:03:03.307Z,992.41
2023-01-15T01:04:03.292Z,992.42
2023-01-15T01:05:03.309Z,992.47
2023-01-15T01:06:03.276Z,992.43
2023-01-15T01:07:03.262Z,992.40
2023-01-15T01:08:03.256Z,992.30
2023-01-15T01:09:03.248Z,992.36
2023-01-15T01:10:03.233Z,992.37
2023-01-15T01:11:03.237Z,992.38
2023-01-15T01:12:03.224Z,992.38
2023-01-15T01:13:03.210Z,992.36
2023-01-15T01:14:03.269Z,992.40
2023-01-15T01:15:03.194Z,992.54
2023-01-15T01:16:03.220Z,992.50
2023-01-15T01:17:03.171Z,992.51
2023-01-15T01:18:03.161Z,992.40
2023-01-15T01:19:03.167Z,992.41
2023-01-15T01:20:03.167Z,992.41
2023-01-15T01:21:03.134Z,992.37
2023-01-15T01:22:03.125Z,992.41
2023-01-15T01:23:03.116Z,992.44
2023-01-15T01:24:03.106Z,992.40
2023-01-15T01:25:03.097Z,992.44
2023-01-15T01:26:03.098Z,992.47
2023-01-15T01:27:03.084Z,992.50
2023-01-15T01:28:03.071Z,992.53
2023-01-15T01:29:03.057Z,992.58
2023-01-15T01:30:03.064Z,992.56
2023-01-15T01:31:03.058Z,992.61
2023-01-15T01:32:03.046Z,992.62
2023-01-15T01:33:03.026Z,992.58
2023-01-15T01:34:03.032Z,992.52
2023-01-15T01:35:03.018Z,992.49
2023-01-15T01:36:03.005Z,992.42
2023-01-15T01:37:02.993Z,992.44
2023-01-15T01:38:02.983Z,992.39
2023-01-15T01:39:02.965Z,992.42
2023-01-15T01:40:02.957Z,992.40
2023-01-15T01:41:02.956Z,992.34
2023-01-15T01:42:02.938Z,992.28
2023-01-15T01:43:02.932Z,992.23
2023-01-15T01:44:02.937Z,992.18
2023-01-15T01:45:02.922Z,992.18
2023-01-15T01:46:02.963Z,992.15
2023-01-15T01:47:02.905Z,992.16
2023-01-15T01:48:02.881Z,992.16
2023-01-15T01:49:02.877Z,992.17
2023-01-15T01:50:02.888Z,992.17
2023-01-15T01:51:02.864Z,992.19
2023-01-15T01:52:02.866Z,992.21
2023-01-15T01:53:02.840Z,992.22
2023-01-15T01:54:02.827Z,992.26
2023-01-15T01:55:02.830Z,992.34
2023-01-15T01:56:02.814Z,992.22
2023-01-15T01:57:02.808Z,992.29
2023-01-15T01:58:02.797Z,992.27
2023-01-15T01:59:02.788Z,992.29
2023-01-15T02:00:02.812Z,992.28
2023-01-15T02:01:02.881Z,992.30
2023-01-15T02:02:02.859Z,992.30
2023-01-15T02:03:02.759Z,992.27
2023-01-15T02:04:02.752Z,992.22
2023-01-15T02:05:02.733Z,992.26
2023-01-15T02:06:02.724Z,992.28
2023-01-15T02:07:02.719Z,992.18
2023-01-15T02:08:02.704Z,992.19
2023-01-15T02:09:02.693Z,992.25
2023-01-15T02:10:02.689Z,992.17
2023-01-15T02:11:02.681Z,992.22
2023-01-15T02:12:02.678Z,992.31
2023-01-15T02:13:02.664Z,992.27
2023-01-15T02:14:02.651Z,992.26
2023-01-15T02:15:02.637Z,992.30
2023-01-15T02:16:02.658Z,992.30
2023-01-15T02:17:02.623Z,992.34
2023-01-15T02:18:02.641Z,992.29
2023-01-15T02:19:02.608Z,992.30
2023-01-15T02:20:02.592Z,992.30
2023-01-15T02:21:02.601Z,992.31
2023-01-15T02:22:02.595Z,992.32
2023-01-15T02:23:02.574Z,992.31
2023-01-15T02:24:03.400Z,992.30
2023-01-15T02:25:02.551Z,992.31
2023-01-15T02:26:02.544Z,992.32
2023-01-15T02:27:02.553Z,992.30
2023-01-15T02:28:02.529Z,992.35
2023-01-15T02:29:02.525Z,992.39
2023-01-15T02:30:02.510Z,992.37
2023-01-15T02:31:02.497Z,992.28
2023-01-15T02:32:02.497Z,992.32
2023-01-15T02:33:02.477Z,992.28
2023-01-15T02:34:02.470Z,992.31
2023-01-15T02:35:02.469Z,992.32
2023-01-15T02:36:02.451Z,992.34
2023-01-15T02:37:02.441Z,992.32
2023-01-15T02:38:02.456Z,992.32
2023-01-15T02:39:02.433Z,992.24
2023-01-15T02:40:02.416Z,992.26
2023-01-15T02:41:02.406Z,992.24
2023-01-15T02:42:02.401Z,992.22
2023-01-15T02:43:02.399Z,992.21
2023-01-15T02:44:02.382Z,992.23
2023-01-15T02:45:02.375Z,992.20
2023-01-15T02:46:02.410Z,992.21
2023-01-15T02:47:02.357Z,992.13
2023-01-15T02:48:02.352Z,992.18
2023-01-15T02:49:02.347Z,992.21
2023-01-15T02:50:02.323Z,992.17
2023-01-15T02:51:02.319Z,992.17
2023-01-15T02:52:02.307Z,992.09
2023-01-15T02:53:02.296Z,992.08
2023-01-15T02:54:02.292Z,992.09
2023-01-15T02:55:02.279Z,992.12
2023-01-15T02:56:02.277Z,992.05
2023-01-15T02:57:02.277Z,992.09
2023-01-15T02:58:02.250Z,992.08
2023-01-15T02:59:02.263Z,992.06
2023-01-15T03:00:02.244Z,992.08
2023-01-15T03:01:02.320Z,992.12
2023-01-15T03:02:02.295Z,992.12
2023-01-15T03:03:02.206Z,992.18
2023-01-15T03:04:02.201Z,992.18
2023-01-15T03:05:02.190Z,992.19
2023-01-15T03:06:02.175Z,992.17
2023-01-15T03:07:02.170Z,992.13
2023-01-15T03:08:02.160Z,992.13
2023-01-15T03:09:02.150Z,992.11
2023-01-15T03:10:02.146Z,992.10
2023-01-15T03:11:02.132Z,992.13
2023-01-15T03:12:02.137Z,992.14
2023-01-15T03:13:02.119Z,992.17
2023-01-15T03:14:02.105Z,992.14
2023-01-15T03:15:02.105Z,992.17
2023-01-15T03:16:02.091Z,992.15
2023-01-15T03:17:02.092Z,992.09
2023-01-15T03:18:02.069Z,992.06
2023-01-15T03:19:02.069Z,992.08
2023-01-15T03:20:02.048Z,992.10
2023-01-15T03:21:02.044Z,992.02
2023-01-15T03:22:02.054Z,991.96
2023-01-15T03:23:02.037Z,992.08
2023-01-15T03:24:02.021Z,991.98
2023-01-15T03:25:02.005Z,992.02
2023-01-15T03:26:02.007Z,992.14
2023-01-15T03:27:01.997Z,992.13
2023-01-15T03:28:01.981Z,992.19
2023-01-15T03:29:01.973Z,992.16
2023-01-15T03:30:01.955Z,992.12
2023-01-15T03:31:02.037Z,992.15
2023-01-15T03:32:01.949Z,992.15
2023-01-15T03:33:01.937Z,992.14
2023-01-15T03:34:01.929Z,992.14
2023-01-15T03:35:01.921Z,992.15
2023-01-15T03:36:01.906Z,992.16
2023-01-15T03:37:01.910Z,992.17
2023-01-15T03:38:01.888Z,992.20
2023-01-15T03:39:01.884Z,992.19
2023-01-15T03:40:01.875Z,992.18
2023-01-15T03:41:01.859Z,992.15
2023-01-15T03:42:01.863Z,992.17
2023-01-15T03:43:01.843Z,992.18
2023-01-15T03:44:01.848Z,992.13
2023-01-15T03:45:01.831Z,992.12
2023-01-15T03:46:01.857Z,992.16
2023-01-15T03:47:01.807Z,992.11
2023-01-15T03:48:01.909Z,992.19
2023-01-15T03:49:01.782Z,992.21
2023-01-15T03:50:01.835Z,992.33
2023-01-15T03:51:01.772Z,992.43
2023-01-15T03:52:01.776Z,992.38
2023-01-15T03:53:01.757Z,992.52
2023-01-15T03:54:01.780Z,992.59
2023-01-15T03:55:01.735Z,992.73
2023-01-15T03:56:01.728Z,992.81
2023-01-15T03:57:01.712Z,992.77
2023-01-15T03:58:01.705Z,992.72
2023-01-15T03:59:01.710Z,992.72
2023-01-15T04:00:01.688Z,992.82
2023-01-15T04:01:01.772Z,992.84
2023-01-15T04:02:01.718Z,992.86
2023-01-15T04:03:01.671Z,992.79
2023-01-15T04:04:01.708Z,992.88
2023-01-15T04:05:01.667Z,992.88
2023-01-15T04:06:01.636Z,992.97
2023-01-15T04:07:01.624Z,993.03
2023-01-15T04:08:01.620Z,993.06
2023-01-15T04:09:01.606Z,993.16
2023-01-15T04:10:01.623Z,993.18
2023-01-15T04:11:01.595Z,993.14
2023-01-15T04:12:01.588Z,993.24
2023-01-15T04:13:01.574Z,993.03
2023-01-15T04:14:01.566Z,993.24
2023-01-15T04:15:01.565Z,993.31
2023-01-15T04:16:01.577Z,993.33
2023-01-15T04:17:01.565Z,993.27
2023-01-15T04:18:01.556Z,993.37
2023-01-15T04:19:01.506Z,993.31
2023-01-15T04:20:01.500Z,993.41
2023-01-15T04:21:01.489Z,993.42
2023-01-15T04:22:01.483Z,993.40
2023-01-15T04:23:01.501Z,993.52
2023-01-15T04:24:01.473Z,993.56
2023-01-15T04:25:01.448Z,993.56
2023-01-15T04:26:01.454Z,993.53
2023-01-15T04:27:01.437Z,993.69
2023-01-15T04:28:01.423Z,993.64
2023-01-15T04:29:01.415Z,993.66
2023-01-15T04:30:01.414Z,993.71
2023-01-15T04:31:01.436Z,993.74
2023-01-15T04:32:01.384Z,993.71
2023-01-15T04:33:01.372Z,993.68
2023-01-15T04:34:01.359Z,993.73
2023-01-15T04:35:01.347Z,993.66
2023-01-15T04:36:01.342Z,993.65
2023-01-15T04:37:01.322Z,993.60
2023-01-15T04:38:01.315Z,993.60
2023-01-15T04:39:01.302Z,993.67
2023-01-15T04:40:01.320Z,993.69
2023-01-15T04:41:01.281Z,993.68
2023-01-15T04:42:01.268Z,993.81
2023-01-15T04:43:01.264Z,993.82
2023-01-15T04:44:01.249Z,993.82
2023-01-15T04:45:01.248Z,993.87
2023-01-15T04:46:01.272Z,993.84
2023-01-15T04:47:01.217Z,993.93
2023-01-15T04:48:01.206Z,993.86
2023-01-15T04:49:01.203Z,993.87
2023-01-15T04:50:01.190Z,993.85
2023-01-15T04:51:01.174Z,993.86
2023-01-15T04:52:01.175Z,993.87
2023-01-15T04:53:01.160Z,993.83
2023-01-15T04:54:01.138Z,993.89
2023-01-15T04:55:01.127Z,993.87
2023-01-15T04:56:01.119Z,993.85
2023-01-15T04:57:01.120Z,993.85
2023-01-15T04:58:01.096Z,993.81
2023-01-15T04:59:01.101Z,993.80
2023-01-15T05:00:01.076Z,993.78
2023-01-15T05:01:01.127Z,993.80
2023-01-15T05:02:05.267Z,993.83
2023-01-15T05:03:01.043Z,993.87
2023-01-15T05:04:01.040Z,993.89
2023-01-15T05:05:01.021Z,993.91
2023-01-15T05:06:01.009Z,993.91
2023-01-15T05:07:00.996Z,993.86
2023-01-15T05:08:00.989Z,993.86
2023-01-15T05:09:00.992Z,993.85
2023-01-15T05:10:00.969Z,993.84
2023-01-15T05:11:00.956Z,993.83
2023-01-15T05:12:00.963Z,993.79
2023-01-15T05:13:00.932Z,993.75
2023-01-15T05:14:00.921Z,993.78
2023-01-15T05:15:00.917Z,993.81
2023-01-15T05:16:01.001Z,993.80
2023-01-15T05:17:00.891Z,993.82
2023-01-15T05:18:00.881Z,993.84
2023-01-15T05:19:00.871Z,993.79
2023-01-15T05:20:00.857Z,993.80
2023-01-15T05:21:00.851Z,993.73
2023-01-15T05:22:00.840Z,993.73
2023-01-15T05:23:00.826Z,993.75
2023-01-15T05:24:00.813Z,993.75
2023-01-15T05:25:00.812Z,993.73
2023-01-15T05:26:00.800Z,993.74
2023-01-15T05:27:00.783Z,993.75
2023-01-15T05:28:00.773Z,993.74
2023-01-15T05:29:00.764Z,993.72
2023-01-15T05:30:00.746Z,993.71
2023-01-15T05:31:00.758Z,993.66
2023-01-15T05:32:00.739Z,993.74
2023-01-15T05:33:00.717Z,993.71
2023-01-15T05:34:00.710Z,993.72
2023-01-15T05:35:00.690Z,993.72
2023-01-15T05:36:00.684Z,993.73
2023-01-15T05:37:00.672Z,993.74
2023-01-15T05:38:00.663Z,993.75
2023-01-15T05:39:00.661Z,993.79
2023-01-15T05:40:00.639Z,993.81
2023-01-15T05:41:00.644Z,993.75
2023-01-15T05:42:00.631Z,993.72
2023-01-15T05:43:00.618Z,993.76
2023-01-15T05:44:00.613Z,993.80
2023-01-15T05:45:00.615Z,993.81
2023-01-15T05:46:00.621Z,993.81
2023-01-15T05:47:00.581Z,993.78
2023-01-15T05:48:00.586Z,993.80
2023-01-15T05:49:00.559Z,993.71
2023-01-15T05:50:00.542Z,993.74
2023-01-15T05:51:00.523Z,993.75
2023-01-15T05:52:00.548Z,993.79
2023-01-15T05:53:00.503Z,993.78
2023-01-15T05:54:00.513Z,993.78
2023-01-15T05:55:00.489Z,993.78
2023-01-15T05:56:00.471Z,993.73
2023-01-15T05:57:00.464Z,993.67
2023-01-15T05:58:00.449Z,993.63
2023-01-15T05:59:00.443Z,993.60
2023-01-15T06:00:00.433Z,993.64
2023-01-15T06:01:00.426Z,993.62
2023-01-15T06:02:00.420Z,993.58
2023-01-15T06:03:00.429Z,993.54
2023-01-15T06:04:00.420Z,993.56
2023-01-15T06:05:00.376Z,993.55
2023-01-15T06:06:00.367Z,993.59
2023-01-15T06:07:00.355Z,993.60
2023-01-15T06:08:01.339Z,993.55
2023-01-15T06:09:00.332Z,993.57
2023-01-15T06:10:00.335Z,993.57
2023-01-15T06:11:00.311Z,993.54
2023-01-15T06:12:00.307Z,993.53
2023-01-15T06:13:00.290Z,993.44
2023-01-15T06:14:00.294Z,993.42
2023-01-15T06:15:00.272Z,993.32
2023-01-15T06:16:00.348Z,993.32
2023-01-15T06:17:00.246Z,993.31
2023-01-15T06:18:00.241Z,993.34
2023-01-15T06:19:00.227Z,993.39
2023-01-15T06:20:00.235Z,993.46
2023-01-15T06:21:00.206Z,993.48
2023-01-15T06:22:00.194Z,993.44
2023-01-15T06:23:00.183Z,993.49
2023-01-15T06:24:00.179Z,993.45
2023-01-15T06:25:00.159Z,993.48
2023-01-15T06:26:00.158Z,993.46
2023-01-15T06:27:00.152Z,993.47
2023-01-15T06:28:00.141Z,993.47
2023-01-15T06:29:00.120Z,993.52
2023-01-15T06:30:00.131Z,993.54
2023-01-15T06:31:00.209Z,993.55
2023-01-15T06:32:00.106Z,993.55
2023-01-15T06:33:00.124Z,993.53
2023-01-15T06:34:00.080Z,993.59
2023-01-15T06:35:00.077Z,993.56
2023-01-15T06:36:00.086Z,993.54
2023-01-15T06:37:00.049Z,993.58
2023-01-15T06:38:00.035Z,993.59
2023-01-15T06:39:00.021Z,993.63
2023-01-15T06:40:00.009Z,993.69
2023-01-15T06:40:59.994Z,993.74
2023-01-15T06:42:00.012Z,993.80
2023-01-15T06:42:59.981Z,993.77
2023-01-15T06:43:59.962Z,993.77
2023-01-15T06:44:59.954Z,993.77
2023-01-15T06:45:59.946Z,993.78
2023-01-15T06:46:59.944Z,993.73
2023-01-15T06:47:59.926Z,993.74
2023-01-15T06:48:59.916Z,993.76
2023-01-15T06:49:59.903Z,993.80
2023-01-15T06:50:59.893Z,993.86
2023-01-15T06:51:59.890Z,993.85
2023-01-15T06:52:59.871Z,993.92
2023-01-15T06:53:59.864Z,993.92
2023-01-15T06:54:59.867Z,993.88
2023-01-15T06:55:59.843Z,993.89
2023-01-15T06:56:59.834Z,993.89
2023-01-15T06:57:59.821Z,993.91
2023-01-15T06:58:59.817Z,993.92
2023-01-15T06:59:59.799Z,993.89
2023-01-15T07:00:59.864Z,993.88
2023-01-15T07:01:59.778Z,993.89
2023-01-15T07:02:59.765Z,993.84
2023-01-15T07:03:59.801Z,993.86
2023-01-15T07:04:59.756Z,993.92
2023-01-15T07:05:59.740Z,993.97
2023-01-15T07:06:59.737Z,994.02
2023-01-15T07:07:59.715Z,994.04
2023-01-15T07:08:59.711Z,993.98
2023-01-15T07:09:59.702Z,994.00
2023-01-15T07:10:59.691Z,994.03
2023-01-15T07:11:59.681Z,994.01
2023-01-15T07:12:59.663Z,994.05
2023-01-15T07:13:59.655Z,994.03
2023-01-15T07:14:59.645Z,994.01
2023-01-15T07:15:59.652Z,993.97
2023-01-15T07:16:59.628Z,993.99
2023-01-15T07:17:59.611Z,993.94
2023-01-15T07:18:59.607Z,993.96
2023-01-15T07:19:59.587Z,993.93
2023-01-15T07:20:59.595Z,993.90
2023-01-15T07:21:59.578Z,993.95
2023-01-15T07:22:59.567Z,993.93
2023-01-15T07:23:59.560Z,993.92
2023-01-15T07:24:59.539Z,993.96
2023-01-15T07:25:59.527Z,993.95
2023-01-15T07:26:59.525Z,993.93
2023-01-15T07:27:59.511Z,993.91
2023-01-15T07:28:59.495Z,993.88
2023-01-15T07:29:59.491Z,993.88
2023-01-15T07:30:59.475Z,993.95
2023-01-15T07:31:59.497Z,993.99
2023-01-15T07:32:59.482Z,993.98
2023-01-15T07:33:59.443Z,994.04
2023-01-15T07:34:59.432Z,994.03
2023-01-15T07:35:59.428Z,994.08
2023-01-15T07:36:59.418Z,994.04
2023-01-15T07:37:59.433Z,994.02
2023-01-15T07:38:59.391Z,994.04
2023-01-15T07:39:59.374Z,994.06
2023-01-15T07:40:59.373Z,994.13
2023-01-15T07:41:59.362Z,994.08
2023-01-15T07:42:59.355Z,994.06
2023-01-15T07:43:59.337Z,994.07
2023-01-15T07:44:59.328Z,994.06
2023-01-15T07:45:59.339Z,994.03
2023-01-15T07:46:59.308Z,994.01
2023-01-15T07:47:59.299Z,994.06
2023-01-15T07:48:59.290Z,994.07
2023-01-15T07:49:59.270Z,994.12
2023-01-15T07:50:59.269Z,994.17
2023-01-15T07:51:59.260Z,994.12
2023-01-15T07:52:59.242Z,994.11
2023-01-15T07:53:59.232Z,994.11
2023-01-15T07:54:59.227Z,994.17
2023-01-15T07:55:59.209Z,994.20
2023-01-15T07:56:59.216Z,994.22
2023-01-15T07:57:59.191Z,994.21
2023-01-15T07:58:59.189Z,994.24
2023-01-15T07:59:59.178Z,994.22
2023-01-15T08:00:59.236Z,994.28
2023-01-15T08:01:59.275Z,994.25
2023-01-15T08:02:59.136Z,994.19
2023-01-15T08:03:59.184Z,994.20
2023-01-15T08:04:59.131Z,994.22
2023-01-15T08:05:59.121Z,994.25
2023-01-15T08:06:59.109Z,994.31
2023-01-15T08:07:59.088Z,994.32
2023-01-15T08:08:59.074Z,994.29
2023-01-15T08:09:59.064Z,994.35
2023-01-15T08:10:59.057Z,994.27
2023-01-15T08:11:59.041Z,994.21
2023-01-15T08:12:59.022Z,994.13
2023-01-15T08:13:59.018Z,994.09
2023-01-15T08:14:59.012Z,994.04
2023-01-15T08:15:58.999Z,994.07
2023-01-15T08:16:59.000Z,994.13
2023-01-15T08:17:58.980Z,994.10
2023-01-15T08:18:58.963Z,993.97
2023-01-15T08:19:58.965Z,993.94
2023-01-15T08:20:58.952Z,993.96
2023-01-15T08:21:58.934Z,993.96
2023-01-15T08:22:58.925Z,993.98
2023-01-15T08:23:58.913Z,993.97
2023-01-15T08:24:58.901Z,993.99
2023-01-15T08:25:58.891Z,993.94
2023-01-15T08:26:58.884Z,993.89
2023-01-15T08:27:58.875Z,993.96
2023-01-15T08:28:59.446Z,993.96
2023-01-15T08:29:58.850Z,994.05
2023-01-15T08:30:58.839Z,993.97
2023-01-15T08:31:58.823Z,994.02
2023-01-15T08:32:58.819Z,994.08
2023-01-15T08:33:58.826Z,994.14
2023-01-15T08:34:58.796Z,994.18
2023-01-15T08:35:58.804Z,994.23
2023-01-15T08:36:58.778Z,994.20
2023-01-15T08:37:58.784Z,994.26
2023-01-15T08:38:58.773Z,994.22
2023-01-15T08:39:58.788Z,994.23
2023-01-15T08:40:58.950Z,994.20
2023-01-15T08:41:58.753Z,994.23
2023-01-15T08:42:58.709Z,994.25
2023-01-15T08:43:58.708Z,994.30
2023-01-15T08:44:58.690Z,994.21
2023-01-15T08:45:58.756Z,994.25
2023-01-15T08:46:58.679Z,994.30
2023-01-15T08:47:58.660Z,994.32
2023-01-15T08:48:58.658Z,994.30
2023-01-15T08:49:58.796Z,994.37
2023-01-15T08:50:58.636Z,994.34
2023-01-15T08:51:58.628Z,994.34
2023-01-15T08:52:58.608Z,994.32
2023-01-15T08:53:58.592Z,994.31
2023-01-15T08:54:58.582Z,994.31
2023-01-15T08:55:58.814Z,994.26
2023-01-15T08:56:58.575Z,994.26
2023-01-15T08:57:58.550Z,994.24
2023-01-15T08:58:58.570Z,994.20
2023-01-15T08:59:58.553Z,994.18
2023-01-15T09:00:58.635Z,994.20
2023-01-15T09:01:58.619Z,994.26
2023-01-15T09:02:58.516Z,994.32
2023-01-15T09:03:58.492Z,994.37
2023-01-15T09:04:58.525Z,994.36
2023-01-15T09:05:58.482Z,994.39
2023-01-15T09:06:58.500Z,994.36
2023-01-15T09:07:58.449Z,994.37
2023-01-15T09:08:58.446Z,994.43
2023-01-15T09:09:58.421Z,994.39
2023-01-15T09:10:58.419Z,994.42
2023-01-15T09:11:58.416Z,994.44
2023-01-15T09:12:58.406Z,994.44
2023-01-15T09:13:58.422Z,994.45
2023-01-15T09:15:02.079Z,994.40
2023-01-15T09:15:58.363Z,994.37
2023-01-15T09:16:58.351Z,994.40
2023-01-15T09:17:58.349Z,994.46
2023-01-15T09:18:58.337Z,994.44
2023-01-15T09:19:58.326Z,994.44
2023-01-15T09:20:58.316Z,994.45
2023-01-15T09:21:58.305Z,994.48
2023-01-15T09:22:58.291Z,994.50
2023-01-15T09:23:58.295Z,994.46
2023-01-15T09:24:58.291Z,994.42
2023-01-15T09:25:58.260Z,994.42
2023-01-15T09:26:58.250Z,994.46
2023-01-15T09:27:58.240Z,994.42
2023-01-15T09:28:58.225Z,994.54
2023-01-15T09:29:58.221Z,994.47
2023-01-15T09:30:58.223Z,994.47
2023-01-15T09:31:58.194Z,994.47
2023-01-15T09:32:58.200Z,994.50
2023-01-15T09:33:58.182Z,994.57
2023-01-15T09:34:58.168Z,994.54
2023-01-15T09:35:58.156Z,994.57
2023-01-15T09:36:58.159Z,994.52
2023-01-15T09:37:58.137Z,994.51
2023-01-15T09:38:58.126Z,994.49
2023-01-15T09:39:58.116Z,994.57
2023-01-15T09:40:58.104Z,994.54
2023-01-15T09:41:58.092Z,994.59
2023-01-15T09:42:58.091Z,994.57
2023-01-15T09:43:58.073Z,994.53
2023-01-15T09:44:58.063Z,994.61
2023-01-15T09:45:58.102Z,994.57
2023-01-15T09:46:58.040Z,994.55
2023-01-15T09:47:58.033Z,994.53
2023-01-15T09:48:58.032Z,994.62
2023-01-15T09:49:58.021Z,994.60
2023-01-15T09:50:58.008Z,994.63
2023-01-15T09:51:57.992Z,994.59
2023-01-15T09:52:57.978Z,994.55
2023-01-15T09:53:57.983Z,994.58
2023-01-15T09:54:57.962Z,994.55
2023-01-15T09:55:57.956Z,994.61
2023-01-15T09:56:57.941Z,994.65
2023-01-15T09:57:57.951Z,994.69
2023-01-15T09:58:57.917Z,994.67
2023-01-15T09:59:57.907Z,994.62
2023-01-15T10:00:57.940Z,994.64
2023-01-15T10:01:57.897Z,994.66
2023-01-15T10:02:57.922Z,994.67
2023-01-15T10:03:57.908Z,994.64
2023-01-15T10:04:57.857Z,994.65
2023-01-15T10:05:57.879Z,994.64
2023-01-15T10:06:57.837Z,994.60
2023-01-15T10:07:57.830Z,994.60
2023-01-15T10:08:57.816Z,994.57
2023-01-15T10:09:57.799Z,994.52
2023-01-15T10:10:57.798Z,994.46
2023-01-15T10:11:57.790Z,994.47
2023-01-15T10:12:57.777Z,994.42
2023-01-15T10:13:57.770Z,994.48
2023-01-15T10:14:57.766Z,994.60
2023-01-15T10:15:58.563Z,994.58
2023-01-15T10:16:57.734Z,994.59
2023-01-15T10:17:57.743Z,994.49
2023-01-15T10:18:57.783Z,994.40
2023-01-15T10:19:57.715Z,994.41
2023-01-15T10:20:57.700Z,994.50
2023-01-15T10:21:57.689Z,994.49
2023-01-15T10:22:59.592Z,994.57
2023-01-15T10:23:57.675Z,994.55
2023-01-15T10:24:57.657Z,994.49
2023-01-15T10:25:57.670Z,994.45
2023-01-15T10:26:57.629Z,994.48
2023-01-15T10:27:57.621Z,994.49
2023-01-15T10:28:57.617Z,994.47
2023-01-15T10:29:57.609Z,994.45
2023-01-15T10:30:57.619Z,994.43
2023-01-15T10:31:57.601Z,994.48
2023-01-15T10:33:02.328Z,994.45
2023-01-15T10:33:57.560Z,994.45
2023-01-15T10:34:57.594Z,994.45
2023-01-15T10:35:57.555Z,994.48
2023-01-15T10:36:57.538Z,994.50
2023-01-15T10:37:57.528Z,994.48
2023-01-15T10:38:57.510Z,994.46
2023-01-15T10:39:57.502Z,994.49
2023-01-15T10:40:57.497Z,994.49
2023-01-15T10:41:57.561Z,994.57
2023-01-15T10:42:57.480Z,994.55
2023-01-15T10:43:57.524Z,994.53
2023-01-15T10:44:57.458Z,994.47
2023-01-15T10:45:57.496Z,994.55
2023-01-15T10:46:58.578Z,994.49
2023-01-15T10:47:57.428Z,994.52
2023-01-15T10:48:57.437Z,994.54
2023-01-15T10:49:57.424Z,994.53
2023-01-15T10:50:57.403Z,994.51
2023-01-15T10:51:57.411Z,994.53
2023-01-15T10:52:57.374Z,994.56
2023-01-15T10:53:57.388Z,994.53
2023-01-15T10:54:57.362Z,994.56
2023-01-15T10:55:57.359Z,994.51
2023-01-15T10:56:57.342Z,994.51
2023-01-15T10:58:09.257Z,994.52
2023-01-15T10:58:57.313Z,994.51
2023-01-15T10:59:57.315Z,994.60
2023-01-15T11:00:57.330Z,994.55
2023-01-15T11:01:57.367Z,994.56
2023-01-15T11:02:57.329Z,994.55
2023-01-15T11:03:57.268Z,994.58
2023-01-15T11:04:57.259Z,994.59
2023-01-15T11:05:57.245Z,994.64
2023-01-15T11:06:57.248Z,994.65
2023-01-15T11:08:42.159Z,994.64
2023-01-15T11:09:12.681Z,994.68
2023-01-15T11:09:57.206Z,994.67
2023-01-15T11:10:57.199Z,994.64
2023-01-15T11:11:57.188Z,994.68
2023-01-15T11:12:57.184Z,994.73
2023-01-15T11:13:57.364Z,994.65
2023-01-15T11:14:57.171Z,994.66
2023-01-15T11:15:57.173Z,994.65
2023-01-15T11:16:57.135Z,994.69
2023-01-15T11:17:57.131Z,994.69
2023-01-15T11:18:57.121Z,994.70
2023-01-15T11:19:57.111Z,994.68
2023-01-15T11:20:57.111Z,994.68
2023-01-15T11:21:57.095Z,994.62
2023-01-15T11:22:57.084Z,994.64
2023-01-15T11:23:57.076Z,994.62
2023-01-15T11:24:57.063Z,994.61
2023-01-15T11:25:57.059Z,994.62
2023-01-15T11:26:57.050Z,994.63
2023-01-15T11:27:57.033Z,994.53
2023-01-15T11:28:57.020Z,994.52
2023-01-15T11:29:57.090Z,994.59
2023-01-15T11:30:57.063Z,994.58
2023-01-15T11:31:57.002Z,994.54
2023-01-15T11:32:56.994Z,994.60
2023-01-15T11:33:56.973Z,994.62
2023-01-15T11:34:56.964Z,994.60
2023-01-15T11:35:56.958Z,994.60
2023-01-15T11:36:56.953Z,994.61
2023-01-15T11:37:56.935Z,994.65
2023-01-15T11:38:56.928Z,994.62
2023-01-15T11:39:56.913Z,994.60
2023-01-15T11:40:56.905Z,994.58
2023-01-15T11:41:56.901Z,994.57
2023-01-15T11:42:56.889Z,994.57
2023-01-15T11:43:57.177Z,994.49
2023-01-15T11:44:56.870Z,994.54
2023-01-15T11:45:56.886Z,994.48
2023-01-15T11:46:56.849Z,994.51
2023-01-15T11:47:56.835Z,994.48
2023-01-15T11:48:56.827Z,994.51
2023-01-15T11:49:56.819Z,994.51
2023-01-15T11:50:56.817Z,994.56
2023-01-15T11:51:56.797Z,994.56
2023-01-15T11:52:56.787Z,994.51
2023-01-15T11:53:56.786Z,994.52
2023-01-15T11:54:56.768Z,994.50
2023-01-15T11:55:56.773Z,994.54
2023-01-15T11:56:56.753Z,994.49
2023-01-15T11:57:56.745Z,994.50
2023-01-15T11:58:56.726Z,994.54
2023-01-15T11:59:56.719Z,994.50
2023-01-15T12:00:56.708Z,994.57
2023-01-15T12:01:56.702Z,994.56
2023-01-15T12:02:56.694Z,994.53
2023-01-15T12:03:56.781Z,994.57
2023-01-15T12:04:56.681Z,994.56
2023-01-15T12:05:56.678Z,994.46
2023-01-15T12:06:56.655Z,994.49
2023-01-15T12:07:56.644Z,994.46
2023-01-15T12:08:56.641Z,994.48
2023-01-15T12:09:56.623Z,994.47
2023-01-15T12:10:56.610Z,994.48
2023-01-15T12:11:56.619Z,994.43
2023-01-15T12:12:56.593Z,994.41
2023-01-15T12:13:56.647Z,994.44
2023-01-15T12:14:56.579Z,994.46
2023-01-15T12:15:56.609Z,994.46
2023-01-15T12:16:56.555Z,994.43
2023-01-15T12:17:56.548Z,994.48
2023-01-15T12:18:56.534Z,994.47
2023-01-15T12:19:56.525Z,994.55
2023-01-15T12:20:56.515Z,994.52
2023-01-15T12:21:56.510Z,994.47
2023-01-15T12:22:56.524Z,994.56
2023-01-15T12:23:56.488Z,994.54
2023-01-15T12:24:56.481Z,994.56
2023-01-15T12:25:56.467Z,994.53
2023-01-15T12:26:56.517Z,994.57
2023-01-15T12:27:56.453Z,994.51